Historyczne dane pomiarowe

Dodano dane terminowe – wersja testowa.

Dane z okresu 1951-2019

Wersja bazy: 1.34 [2019-03-16, lista zmian], aktualizacja planowana na 2019-04-15

Dane meteo z obszaru Polski uzyskane na podstawie danych udostępnionych przez Instytut Meteorologii i Gospodarki Wodnej – Państwowy Instytut Badawczy.

 

Wybierz Datę:    

       

TemperaturaWilgotnośćWiatrCiśnienieOpadyŚniegCzas trwania zjawisk
 Stacja t tx tn tng RH VA  wxwx mslp ppp RRR   cm mm wxwxwxwxwxwxwx
1961-08-14 12.8 18.7 5.3 3.6 79.5- 3.3 0.7---- 0.0------------
1961-08-13 11.3 14.5 9.2 10.2 94.8- 5.3 1.0---- 7.7------------
1961-08-12 16.5 22.2 14.1 12.7 90.0- 7.7 1.0---- 28.7------------
1961-08-11 21.2 30.4 18.2 16.4 84.5- 2.0 1.0---- 3.4------------
1961-08-10 24.4 31.1 16.9 14.4 82.8- 2.7 2.3---- 0.0------------
1961-08-09 21.7 27.0 15.8 12.8 81.8- 7.0 2.0---- 4.7------------
1961-08-08 18.3 22.7 15.1 14.5 84.5- 6.0 2.0---- 0.3------------
1961-08-07 21.8 27.8 15.7 11.1 71.8- 0.7 0.7---- 4.0------------
1961-08-06 22.8 30.7 16.1 11.0 67.8- 0.0 2.0---- 0.0------------
1961-08-05 18.5 23.5 14.1 8.9 76.8- 4.3 1.7---- 0.0------------
1961-08-04 15.2 20.2 6.5 4.2 76.0- 4.0 0.7---- 0.0------------
1961-08-03 16.2 21.2 11.7 9.7 81.0- 4.3 0.7---- 0.0------------
1961-08-02 19.2 26.2 10.4 6.4 69.5- 2.7 2.3---- 0.0------------
1961-08-01 14.1 20.6 10.0 10.0 77.5- 5.3 1.7---- 0.0------------
1961-07-31 12.2 13.4 10.8 10.3 95.3- 6.7 2.0---- 15.4------------
1961-07-30 11.3 12.6 10.8 9.7 94.8- 8.0 1.0---- 23.9------------
1961-07-29 12.5 17.2 11.3 12.0 92.0- 8.0 2.7---- 1.3------------
1961-07-28 17.9 22.8 14.6 11.8 86.8- 6.0 1.3---- 12.7------------
1961-07-27 19.2 25.1 11.8 8.4 72.5- 5.0 2.7---- 2.2------------
1961-07-26 16.0 22.7 8.3 5.3 67.5- 2.0 1.7---- 0.0------------
1961-07-25 12.8 15.7 10.6 10.0 82.0- 7.0 1.0---- 0.0------------
1961-07-24 13.5 17.3 9.5 6.7 75.0- 6.0 2.3---- 0.0------------
1961-07-23 13.8 19.5 11.7 10.7 83.0- 5.7 1.3---- 0.0------------
1961-07-22 13.1 16.7 11.8 10.5 91.5- 6.7 1.3---- 6.4------------
1961-07-21 13.2 17.3 8.3 6.9 94.0- 7.0 0.7---- 5.9------------
1961-07-20 14.5 20.4 9.6 6.6 84.8- 6.0 0.7---- 21.8------------
1961-07-19 14.4 19.3 10.7 8.3 84.0- 8.0 1.3---- 3.3------------
1961-07-18 13.6 18.8 9.3 6.9 83.8- 4.3 1.7---- 0.0------------
1961-07-17 14.8 20.5 11.4 9.0 74.0- 0.7 1.7---- 0.3------------
1961-07-16 15.7 21.2 13.4 13.2 84.8- 5.3 4.0---- 0.0------------
1961-07-15 17.5 23.1 12.8 9.0 71.5- 5.0 2.7---- 22.2------------
1961-07-14 14.2 19.2 12.9 9.2 67.0- 4.3 2.3---- 0.3------------
1961-07-13 19.3 28.8 15.1 12.2 78.5- 4.7 2.7---- 27.7------------
1961-07-12 20.6 27.3 14.8 10.5 72.3- 0.0 1.3---- 0.0------------
1961-07-11 14.9 20.7 7.0 4.5 76.8- 2.7 1.0---- 0.0------------
1961-07-10 13.2 16.6 8.0 5.9 78.5- 6.0 2.3---- 3.9------------
1961-07-09 13.6 20.1 10.0 6.2 83.5- 5.3 2.0---- 2.0------------
1961-07-08 14.2 19.7 7.5 5.1 70.0- 3.7 1.3---- 0.0------------
1961-07-07 11.4 16.2 9.0 9.4 80.0- 6.0 2.0---- 0.0------------
1961-07-06 12.0 16.0 6.0 4.1 80.8- 7.7 1.0---- 1.6------------
1961-07-05 12.4 17.7 10.3 11.2 74.5- 6.0 2.7---- 0.0------------
1961-07-04 19.9 29.3 14.6 12.0 81.0- 2.7 1.7---- 15.7------------
1961-07-03 23.2 30.2 13.5 10.8 58.5- 0.3 0.7---- 0.0------------
1961-07-02 22.3 29.3 12.0 10.6 59.8- 0.0 0.3---- 0.0------------
1961-07-01 20.2 27.2 10.4 8.5 59.3- 1.0 0.7---- 0.0------------
1961-06-30 17.4 24.3 8.3 6.9 70.3- 0.3 1.3---- 0.0------------
1961-06-29 14.7 20.6 6.0 4.6 76.3- 0.3 2.0---- 0.0------------
1961-06-28 13.2 20.1 11.3 13.0 79.8- 5.3 2.7---- 3.0------------
1961-06-27 24.0 32.8 16.8 13.5 72.5- 2.7 1.7---- 47.4------------
1961-06-26 21.3 30.2 15.4 11.7 74.5- 3.3 1.3---- 2.3------------
1961-06-25 21.6 29.9 10.6 7.4 62.3- 0.0 1.7---- 0.0------------
1961-06-24 17.6 24.8 10.7 7.9 67.3- 4.0 2.7---- 0.0------------
1961-06-23 18.3 24.2 15.4 14.5 67.5- 2.7 2.3---- 0.0------------
1961-06-22 19.5 26.4 8.0 4.9 69.8- 1.0 2.0---- 4.7------------
1961-06-21 17.3 24.3 8.7 3.1 60.0- 1.3 3.0---- 0.0------------
1961-06-20 14.4 20.7 7.3 7.2 59.3- 1.3 3.3---- 0.0------------
1961-06-19 18.7 26.0 14.5 10.2 76.5- 4.0 2.0---- 0.1------------
1961-06-18 20.0 26.3 8.7 5.6 58.5- 0.7 2.0---- 0.0------------
1961-06-17 14.3 22.6 6.0 3.1 70.5- 1.3 1.0---- 0.0------------
1961-06-16 12.1 18.4 3.6 2.0 77.5- 4.0 2.0---- 0.0------------
380.0 ms

 

Źródłem pochodzenia danych jest Instytut Meteorologii i Gospodarki Wodnej – Państwowy Instytut Badawczy. Dane Instytutu Meteorologii i Gospodarki Wodnej – Państwowego Instytutu Badawczego zostały przetworzone.

Dane źródłowe można odnaleźć na stronie https://dane.imgw.pl